San Pedro Sula, Honduras
Current Conditions -  °F | °C
As of 4:00 PM on Saturday 20 Dec 2014 (Local Time) from MHLM Reporting Station
Scattered Clouds Scattered Clouds  
Wind Chill: 29°   Ceiling: Unl
Heat Index: 34°   Visibility: 6mi
Dew Point: 24°   Wind: 13mph
Humidity: 74%   Direction: 20°NNE
Pressure: 29.91"   Gusts: NA
Location:  15.47°N, 88.03°W
Report Text: MHLM 202200Z 02011KT 9999 SCT028 SCT080 29/24 Q1013 A2991NOSIG
Loading
Personal Weather Stations






























Interactive Weather Map New forecast layout! Learn more

10-Day Weather Forecast

Advertisements
Track Severe Weather on mobile